Concord, Michigan
Current Conditions -  °F | °C
As of 11:56 AM on Friday 24 Oct 2014 (Local Time) from KJXN Reporting Station
Overcast Overcast  
Wind Chill: 52°   Ceiling: 3000
Heat Index: 52°   Visibility: 10mi
Dew Point: 44°   Wind: 7mph
Humidity: 74%   Direction: 250°WSW
Pressure: 30.07"   Gusts: NA
Location:  42.18°N, 84.64°W
Report Text: KJXN 241556Z 25006KT 10SM OVC030 11/07 A3007 RMK AO2 SLP189 T01110067
Loading
Personal Weather Stations






























Interactive Weather Map New forecast layout! Learn more

10-Day Weather Forecast

Advertisements
Track Severe Weather on mobile